Pagrindinis puslapis
METAR-TAF:

METAR-TAF

Oro uostai :

Edinburg, Teksasas, Jungtinės Amerikos Valstijos

platuma: 26-26-31N, ilguma: 098-07-46W, Aukštis: 24 m

Dabartinis oras

Ataskaita buvo paskelbta 23 minutes, ne 04:35 UTC
Ramus vėjas
Temperatūra 20°C
Drėgmė 88%
Slėgis 1023 hPa
Matomumas: 11.3 km
Giedras dangus

METAR: KEBG 140435Z AUTO 00000KT 7SM CLR 20/18 A3020 RMK AO2 T02000183 TSNO

Laikas: 23:58 (04:58 UTC)


TAF: trūkstamas

Orai ataskaitas ir orų prognozės (METAR, TAF).

turimą stotys yra geltonos ir raudonos taškus žemėlapyje.

Perkelti pele per norėdami pamatyti stoties vardą.

Tada spustelėkite, norėdami matyti oro stebėjimo ir prognozės.

Norėdami pakeisti žemėlapį: spustelėkite ant žalios mygtukų su juodo kryžiaus žemyn,; žalią mygtuką su brūkšneliu, jei norite nutolinti; arba žalių rodyklių gretimoms žemėlapius.


METAR-TAF: